sensor_id;sensor_type;location;lat;lon;timestamp;temperature;humidity
16441;DHT22;8330;-33.858;151.184;2023-10-31T00:02:28;28.30;39.30
16441;DHT22;8330;-33.858;151.184;2023-10-31T00:04:59;28.30;39.20
16441;DHT22;8330;-33.858;151.184;2023-10-31T00:07:30;28.30;39.90
16441;DHT22;8330;-33.858;151.184;2023-10-31T00:10:02;28.40;39.20
16441;DHT22;8330;-33.858;151.184;2023-10-31T00:12:34;28.60;38.30
16441;DHT22;8330;-33.858;151.184;2023-10-31T00:15:05;28.70;38.00
16441;DHT22;8330;-33.858;151.184;2023-10-31T00:17:35;28.80;37.60
16441;DHT22;8330;-33.858;151.184;2023-10-31T00:20:07;28.70;36.40
16441;DHT22;8330;-33.858;151.184;2023-10-31T00:22:38;28.50;35.50
16441;DHT22;8330;-33.858;151.184;2023-10-31T00:25:10;28.50;35.90
16441;DHT22;8330;-33.858;151.184;2023-10-31T00:27:42;28.60;36.00
16441;DHT22;8330;-33.858;151.184;2023-10-31T00:30:13;28.70;35.40
16441;DHT22;8330;-33.858;151.184;2023-10-31T00:32:44;28.60;33.40
16441;DHT22;8330;-33.858;151.184;2023-10-31T00:35:15;28.50;33.40
16441;DHT22;8330;-33.858;151.184;2023-10-31T00:37:46;28.40;32.90
16441;DHT22;8330;-33.858;151.184;2023-10-31T00:40:19;28.60;32.60
16441;DHT22;8330;-33.858;151.184;2023-10-31T00:42:49;28.80;31.20
16441;DHT22;8330;-33.858;151.184;2023-10-31T00:45:21;28.90;31.60
16441;DHT22;8330;-33.858;151.184;2023-10-31T00:47:52;28.80;31.10
16441;DHT22;8330;-33.858;151.184;2023-10-31T00:50:23;28.60;30.10
16441;DHT22;8330;-33.858;151.184;2023-10-31T00:52:53;28.80;30.50
16441;DHT22;8330;-33.858;151.184;2023-10-31T00:55:26;29.00;30.40
16441;DHT22;8330;-33.858;151.184;2023-10-31T00:57:57;29.00;29.40
16441;DHT22;8330;-33.858;151.184;2023-10-31T01:00:28;29.00;28.80
16441;DHT22;8330;-33.858;151.184;2023-10-31T01:02:59;29.00;29.50
16441;DHT22;8330;-33.858;151.184;2023-10-31T01:05:30;29.20;28.10
16441;DHT22;8330;-33.858;151.184;2023-10-31T01:08:01;29.30;27.90
16441;DHT22;8330;-33.858;151.184;2023-10-31T01:10:33;29.10;28.20
16441;DHT22;8330;-33.858;151.184;2023-10-31T01:13:04;29.10;25.70
16441;DHT22;8330;-33.858;151.184;2023-10-31T01:15:35;29.20;24.50
16441;DHT22;8330;-33.858;151.184;2023-10-31T01:18:06;29.20;24.40
16441;DHT22;8330;-33.858;151.184;2023-10-31T01:20:37;29.40;24.60
16441;DHT22;8330;-33.858;151.184;2023-10-31T01:23:08;29.30;22.90
16441;DHT22;8330;-33.858;151.184;2023-10-31T01:25:40;29.20;22.10
16441;DHT22;8330;-33.858;151.184;2023-10-31T01:28:11;29.30;21.30
16441;DHT22;8330;-33.858;151.184;2023-10-31T01:30:42;29.40;21.60
16441;DHT22;8330;-33.858;151.184;2023-10-31T01:33:13;29.20;21.30
16441;DHT22;8330;-33.858;151.184;2023-10-31T01:35:43;29.10;23.00
16441;DHT22;8330;-33.858;151.184;2023-10-31T01:38:14;29.30;23.80
16441;DHT22;8330;-33.858;151.184;2023-10-31T01:40:49;29.20;25.40
16441;DHT22;8330;-33.858;151.184;2023-10-31T01:43:34;29.10;24.70
16441;DHT22;8330;-33.858;151.184;2023-10-31T01:46:06;29.20;25.10
16441;DHT22;8330;-33.858;151.184;2023-10-31T01:48:37;29.60;24.30
16441;DHT22;8330;-33.858;151.184;2023-10-31T01:51:08;29.60;22.70
16441;DHT22;8330;-33.858;151.184;2023-10-31T01:53:41;29.40;22.30
16441;DHT22;8330;-33.858;151.184;2023-10-31T01:56:14;29.40;22.30
16441;DHT22;8330;-33.858;151.184;2023-10-31T01:58:45;29.40;22.10
16441;DHT22;8330;-33.858;151.184;2023-10-31T02:01:16;29.30;22.00
16441;DHT22;8330;-33.858;151.184;2023-10-31T02:03:46;29.30;22.00
16441;DHT22;8330;-33.858;151.184;2023-10-31T02:06:17;29.40;21.70
16441;DHT22;8330;-33.858;151.184;2023-10-31T02:08:49;29.30;20.90
16441;DHT22;8330;-33.858;151.184;2023-10-31T02:11:22;29.20;20.80
16441;DHT22;8330;-33.858;151.184;2023-10-31T02:13:53;29.10;20.30
16441;DHT22;8330;-33.858;151.184;2023-10-31T02:16:24;29.10;20.40
16441;DHT22;8330;-33.858;151.184;2023-10-31T02:18:54;29.20;20.70
16441;DHT22;8330;-33.858;151.184;2023-10-31T02:21:26;29.30;20.50
16441;DHT22;8330;-33.858;151.184;2023-10-31T02:24:01;29.50;20.00
16441;DHT22;8330;-33.858;151.184;2023-10-31T02:26:33;29.20;19.00
16441;DHT22;8330;-33.858;151.184;2023-10-31T02:29:05;29.10;19.00
16441;DHT22;8330;-33.858;151.184;2023-10-31T02:31:35;29.30;19.60
16441;DHT22;8330;-33.858;151.184;2023-10-31T02:34:06;29.10;18.80
16441;DHT22;8330;-33.858;151.184;2023-10-31T02:36:37;29.00;19.20
16441;DHT22;8330;-33.858;151.184;2023-10-31T02:39:10;29.40;19.30
16441;DHT22;8330;-33.858;151.184;2023-10-31T02:41:41;29.20;19.30
16441;DHT22;8330;-33.858;151.184;2023-10-31T02:44:11;29.20;19.70
16441;DHT22;8330;-33.858;151.184;2023-10-31T02:46:42;29.40;20.00
16441;DHT22;8330;-33.858;151.184;2023-10-31T02:49:13;29.50;19.10
16441;DHT22;8330;-33.858;151.184;2023-10-31T02:51:44;29.50;20.00
16441;DHT22;8330;-33.858;151.184;2023-10-31T02:54:16;29.60;20.10
16441;DHT22;8330;-33.858;151.184;2023-10-31T02:56:47;29.70;21.00
16441;DHT22;8330;-33.858;151.184;2023-10-31T02:59:18;29.70;20.00
16441;DHT22;8330;-33.858;151.184;2023-10-31T03:01:49;29.60;19.50
16441;DHT22;8330;-33.858;151.184;2023-10-31T03:04:20;29.30;20.00
16441;DHT22;8330;-33.858;151.184;2023-10-31T03:06:51;29.40;20.10
16441;DHT22;8330;-33.858;151.184;2023-10-31T03:09:23;29.60;20.00
16441;DHT22;8330;-33.858;151.184;2023-10-31T03:11:54;29.90;20.30
16441;DHT22;8330;-33.858;151.184;2023-10-31T03:14:25;30.30;27.60
16441;DHT22;8330;-33.858;151.184;2023-10-31T03:16:56;30.20;35.70
16441;DHT22;8330;-33.858;151.184;2023-10-31T03:19:27;30.00;38.00
16441;DHT22;8330;-33.858;151.184;2023-10-31T03:21:57;29.70;39.10
16441;DHT22;8330;-33.858;151.184;2023-10-31T03:24:30;29.40;41.90
16441;DHT22;8330;-33.858;151.184;2023-10-31T03:27:01;29.40;44.30
16441;DHT22;8330;-33.858;151.184;2023-10-31T03:29:31;29.30;47.40
16441;DHT22;8330;-33.858;151.184;2023-10-31T03:32:02;29.20;50.20
16441;DHT22;8330;-33.858;151.184;2023-10-31T03:34:34;29.00;49.10
16441;DHT22;8330;-33.858;151.184;2023-10-31T03:37:05;28.90;51.60
16441;DHT22;8330;-33.858;151.184;2023-10-31T03:39:43;28.90;52.50
16441;DHT22;8330;-33.858;151.184;2023-10-31T03:42:13;28.60;54.70
16441;DHT22;8330;-33.858;151.184;2023-10-31T03:44:45;28.20;56.60
16441;DHT22;8330;-33.858;151.184;2023-10-31T03:47:16;27.90;57.60
16441;DHT22;8330;-33.858;151.184;2023-10-31T03:49:47;27.40;58.80
16441;DHT22;8330;-33.858;151.184;2023-10-31T03:52:18;27.30;59.40
16441;DHT22;8330;-33.858;151.184;2023-10-31T03:54:52;27.30;59.90
16441;DHT22;8330;-33.858;151.184;2023-10-31T03:57:23;27.30;61.60
16441;DHT22;8330;-33.858;151.184;2023-10-31T03:59:54;27.30;62.90
16441;DHT22;8330;-33.858;151.184;2023-10-31T04:02:25;27.30;60.40
16441;DHT22;8330;-33.858;151.184;2023-10-31T04:04:56;27.30;61.70
16441;DHT22;8330;-33.858;151.184;2023-10-31T04:07:26;27.40;61.10
16441;DHT22;8330;-33.858;151.184;2023-10-31T04:09:59;27.40;62.00
16441;DHT22;8330;-33.858;151.184;2023-10-31T04:12:30;27.20;62.00
16441;DHT22;8330;-33.858;151.184;2023-10-31T04:15:01;27.30;61.90
16441;DHT22;8330;-33.858;151.184;2023-10-31T04:17:32;27.40;61.60
16441;DHT22;8330;-33.858;151.184;2023-10-31T04:20:03;27.40;62.40
16441;DHT22;8330;-33.858;151.184;2023-10-31T04:22:34;27.30;62.80
16441;DHT22;8330;-33.858;151.184;2023-10-31T04:25:07;27.30;62.30
16441;DHT22;8330;-33.858;151.184;2023-10-31T04:27:41;27.10;61.50
16441;DHT22;8330;-33.858;151.184;2023-10-31T04:30:12;27.00;62.60
16441;DHT22;8330;-33.858;151.184;2023-10-31T04:32:43;27.10;61.90
16441;DHT22;8330;-33.858;151.184;2023-10-31T04:35:13;27.00;60.20
16441;DHT22;8330;-33.858;151.184;2023-10-31T04:37:44;27.00;59.80
16441;DHT22;8330;-33.858;151.184;2023-10-31T04:40:19;27.00;60.30
16441;DHT22;8330;-33.858;151.184;2023-10-31T04:42:51;27.10;60.00
16441;DHT22;8330;-33.858;151.184;2023-10-31T04:45:30;26.90;60.50
16441;DHT22;8330;-33.858;151.184;2023-10-31T04:48:01;26.90;60.40
16441;DHT22;8330;-33.858;151.184;2023-10-31T04:50:32;26.90;59.70
16441;DHT22;8330;-33.858;151.184;2023-10-31T04:53:02;27.00;59.20
16441;DHT22;8330;-33.858;151.184;2023-10-31T04:55:38;27.00;59.00
16441;DHT22;8330;-33.858;151.184;2023-10-31T04:58:11;27.00;59.20
16441;DHT22;8330;-33.858;151.184;2023-10-31T05:00:44;27.30;59.60
16441;DHT22;8330;-33.858;151.184;2023-10-31T05:03:14;27.30;58.50
16441;DHT22;8330;-33.858;151.184;2023-10-31T05:05:45;27.50;58.30
16441;DHT22;8330;-33.858;151.184;2023-10-31T05:08:16;27.70;57.70
16441;DHT22;8330;-33.858;151.184;2023-10-31T05:10:49;27.80;58.10
16441;DHT22;8330;-33.858;151.184;2023-10-31T05:13:21;27.90;57.30
16441;DHT22;8330;-33.858;151.184;2023-10-31T05:15:52;28.00;56.70
16441;DHT22;8330;-33.858;151.184;2023-10-31T05:18:23;28.10;56.60
16441;DHT22;8330;-33.858;151.184;2023-10-31T05:20:54;28.10;56.90
16441;DHT22;8330;-33.858;151.184;2023-10-31T05:23:26;28.20;57.20
16441;DHT22;8330;-33.858;151.184;2023-10-31T05:25:58;28.40;57.40
16441;DHT22;8330;-33.858;151.184;2023-10-31T05:28:29;28.90;56.10
16441;DHT22;8330;-33.858;151.184;2023-10-31T05:31:00;29.10;55.80
16441;DHT22;8330;-33.858;151.184;2023-10-31T05:33:31;29.20;55.60
16441;DHT22;8330;-33.858;151.184;2023-10-31T05:36:02;29.40;54.10
16441;DHT22;8330;-33.858;151.184;2023-10-31T05:38:36;29.20;55.00
16441;DHT22;8330;-33.858;151.184;2023-10-31T05:41:11;29.00;56.40
16441;DHT22;8330;-33.858;151.184;2023-10-31T05:43:42;29.00;55.70
16441;DHT22;8330;-33.858;151.184;2023-10-31T05:46:13;29.20;55.00
16441;DHT22;8330;-33.858;151.184;2023-10-31T05:48:45;29.00;54.00
16441;DHT22;8330;-33.858;151.184;2023-10-31T05:51:17;29.00;54.40
16441;DHT22;8330;-33.858;151.184;2023-10-31T05:53:48;29.30;53.80
16441;DHT22;8330;-33.858;151.184;2023-10-31T05:56:21;29.40;54.00
16441;DHT22;8330;-33.858;151.184;2023-10-31T05:58:52;29.30;53.20
16441;DHT22;8330;-33.858;151.184;2023-10-31T06:01:23;29.60;54.10
16441;DHT22;8330;-33.858;151.184;2023-10-31T06:03:54;29.80;53.30
16441;DHT22;8330;-33.858;151.184;2023-10-31T06:06:25;29.60;53.40
16441;DHT22;8330;-33.858;151.184;2023-10-31T06:08:56;29.70;53.50
16441;DHT22;8330;-33.858;151.184;2023-10-31T06:11:29;29.90;53.90
16441;DHT22;8330;-33.858;151.184;2023-10-31T06:14:00;30.00;52.70
16441;DHT22;8330;-33.858;151.184;2023-10-31T06:16:31;30.20;52.40
16441;DHT22;8330;-33.858;151.184;2023-10-31T06:19:01;30.20;52.90
16441;DHT22;8330;-33.858;151.184;2023-10-31T06:21:32;30.00;53.40
16441;DHT22;8330;-33.858;151.184;2023-10-31T06:24:03;30.50;52.90
16441;DHT22;8330;-33.858;151.184;2023-10-31T06:26:36;30.60;52.20
16441;DHT22;8330;-33.858;151.184;2023-10-31T06:29:07;30.20;52.20
16441;DHT22;8330;-33.858;151.184;2023-10-31T06:31:38;30.20;51.80
16441;DHT22;8330;-33.858;151.184;2023-10-31T06:34:08;30.00;51.80
16441;DHT22;8330;-33.858;151.184;2023-10-31T06:36:39;30.30;51.70
16441;DHT22;8330;-33.858;151.184;2023-10-31T06:39:10;30.40;52.20
16441;DHT22;8330;-33.858;151.184;2023-10-31T06:41:43;30.10;51.50
16441;DHT22;8330;-33.858;151.184;2023-10-31T06:44:13;30.20;51.70
16441;DHT22;8330;-33.858;151.184;2023-10-31T06:46:44;30.30;51.40
16441;DHT22;8330;-33.858;151.184;2023-10-31T06:49:15;30.60;50.90
16441;DHT22;8330;-33.858;151.184;2023-10-31T06:51:47;30.30;51.40
16441;DHT22;8330;-33.858;151.184;2023-10-31T06:54:18;30.30;50.70
16441;DHT22;8330;-33.858;151.184;2023-10-31T06:56:51;30.30;50.70
16441;DHT22;8330;-33.858;151.184;2023-10-31T06:59:22;30.00;51.20
16441;DHT22;8330;-33.858;151.184;2023-10-31T07:01:52;30.10;50.00
16441;DHT22;8330;-33.858;151.184;2023-10-31T07:04:24;29.70;50.20
16441;DHT22;8330;-33.858;151.184;2023-10-31T07:06:55;29.70;51.10
16441;DHT22;8330;-33.858;151.184;2023-10-31T07:09:27;29.70;50.70
16441;DHT22;8330;-33.858;151.184;2023-10-31T07:11:59;29.50;51.30
16441;DHT22;8330;-33.858;151.184;2023-10-31T07:14:30;29.20;50.90
16441;DHT22;8330;-33.858;151.184;2023-10-31T07:17:01;29.00;51.30
16441;DHT22;8330;-33.858;151.184;2023-10-31T07:19:32;28.80;51.60
16441;DHT22;8330;-33.858;151.184;2023-10-31T07:22:03;28.80;51.80
16441;DHT22;8330;-33.858;151.184;2023-10-31T07:24:34;28.60;51.70
16441;DHT22;8330;-33.858;151.184;2023-10-31T07:27:07;28.20;51.90
16441;DHT22;8330;-33.858;151.184;2023-10-31T07:29:42;27.70;53.00
16441;DHT22;8330;-33.858;151.184;2023-10-31T07:32:14;27.20;54.00
16441;DHT22;8330;-33.858;151.184;2023-10-31T07:34:44;26.80;54.60
16441;DHT22;8330;-33.858;151.184;2023-10-31T07:37:15;26.30;55.70
16441;DHT22;8330;-33.858;151.184;2023-10-31T07:39:46;25.80;56.10
16441;DHT22;8330;-33.858;151.184;2023-10-31T07:42:20;25.50;57.30
16441;DHT22;8330;-33.858;151.184;2023-10-31T07:44:51;25.20;58.40
16441;DHT22;8330;-33.858;151.184;2023-10-31T07:47:21;24.70;59.20
16441;DHT22;8330;-33.858;151.184;2023-10-31T07:49:52;24.30;60.50
16441;DHT22;8330;-33.858;151.184;2023-10-31T07:52:23;24.10;61.90
16441;DHT22;8330;-33.858;151.184;2023-10-31T07:54:54;23.80;63.50
16441;DHT22;8330;-33.858;151.184;2023-10-31T07:57:26;23.70;64.60
16441;DHT22;8330;-33.858;151.184;2023-10-31T07:59:57;23.60;64.50
16441;DHT22;8330;-33.858;151.184;2023-10-31T08:02:28;23.10;67.00
16441;DHT22;8330;-33.858;151.184;2023-10-31T08:04:59;23.10;67.70
16441;DHT22;8330;-33.858;151.184;2023-10-31T08:07:29;23.10;67.50
16441;DHT22;8330;-33.858;151.184;2023-10-31T08:10:00;23.00;66.70
16441;DHT22;8330;-33.858;151.184;2023-10-31T08:12:33;22.80;67.10
16441;DHT22;8330;-33.858;151.184;2023-10-31T08:15:04;22.70;67.80
16441;DHT22;8330;-33.858;151.184;2023-10-31T08:17:35;22.80;67.70
16441;DHT22;8330;-33.858;151.184;2023-10-31T08:20:07;22.60;67.50
16441;DHT22;8330;-33.858;151.184;2023-10-31T08:22:38;22.60;69.10
16441;DHT22;8330;-33.858;151.184;2023-10-31T08:25:10;22.60;68.10
16441;DHT22;8330;-33.858;151.184;2023-10-31T08:27:43;22.60;68.10
16441;DHT22;8330;-33.858;151.184;2023-10-31T08:30:14;22.60;67.70
16441;DHT22;8330;-33.858;151.184;2023-10-31T08:32:46;22.60;67.60
16441;DHT22;8330;-33.858;151.184;2023-10-31T08:35:16;22.60;68.00
16441;DHT22;8330;-33.858;151.184;2023-10-31T08:37:47;22.70;68.10
16441;DHT22;8330;-33.858;151.184;2023-10-31T08:40:18;22.70;68.80
16441;DHT22;8330;-33.858;151.184;2023-10-31T08:42:51;22.60;69.60
16441;DHT22;8330;-33.858;151.184;2023-10-31T08:45:22;22.40;70.60
16441;DHT22;8330;-33.858;151.184;2023-10-31T08:47:53;22.30;71.10
16441;DHT22;8330;-33.858;151.184;2023-10-31T08:50:24;22.30;71.50
16441;DHT22;8330;-33.858;151.184;2023-10-31T08:52:55;22.20;72.30
16441;DHT22;8330;-33.858;151.184;2023-10-31T08:55:26;22.20;71.10
16441;DHT22;8330;-33.858;151.184;2023-10-31T08:57:59;22.20;71.50
16441;DHT22;8330;-33.858;151.184;2023-10-31T09:00:29;22.10;71.40
16441;DHT22;8330;-33.858;151.184;2023-10-31T09:03:00;22.10;71.80
16441;DHT22;8330;-33.858;151.184;2023-10-31T09:05:32;22.10;72.20
16441;DHT22;8330;-33.858;151.184;2023-10-31T09:08:02;22.10;71.40
16441;DHT22;8330;-33.858;151.184;2023-10-31T09:10:35;22.10;70.80
16441;DHT22;8330;-33.858;151.184;2023-10-31T09:13:08;22.10;71.10
16441;DHT22;8330;-33.858;151.184;2023-10-31T09:15:39;22.00;70.90
16441;DHT22;8330;-33.858;151.184;2023-10-31T09:18:12;22.00;70.80
16441;DHT22;8330;-33.858;151.184;2023-10-31T09:20:43;22.00;70.70
16441;DHT22;8330;-33.858;151.184;2023-10-31T09:23:14;22.10;70.50
16441;DHT22;8330;-33.858;151.184;2023-10-31T09:25:45;22.10;71.00
16441;DHT22;8330;-33.858;151.184;2023-10-31T09:28:18;22.10;72.40
16441;DHT22;8330;-33.858;151.184;2023-10-31T09:30:49;22.00;72.60
16441;DHT22;8330;-33.858;151.184;2023-10-31T09:33:20;22.00;73.10
16441;DHT22;8330;-33.858;151.184;2023-10-31T09:35:50;22.00;73.40
16441;DHT22;8330;-33.858;151.184;2023-10-31T09:38:21;21.80;74.40
16441;DHT22;8330;-33.858;151.184;2023-10-31T09:40:52;21.80;74.60
16441;DHT22;8330;-33.858;151.184;2023-10-31T09:43:24;21.80;74.80
16441;DHT22;8330;-33.858;151.184;2023-10-31T09:45:55;21.80;75.30
16441;DHT22;8330;-33.858;151.184;2023-10-31T09:48:28;21.80;75.70
16441;DHT22;8330;-33.858;151.184;2023-10-31T09:50:59;21.80;75.20
16441;DHT22;8330;-33.858;151.184;2023-10-31T09:53:31;21.80;75.30
16441;DHT22;8330;-33.858;151.184;2023-10-31T09:56:06;21.80;75.80
16441;DHT22;8330;-33.858;151.184;2023-10-31T09:58:41;21.70;76.10
16441;DHT22;8330;-33.858;151.184;2023-10-31T10:01:13;21.70;76.80
16441;DHT22;8330;-33.858;151.184;2023-10-31T10:03:44;21.70;75.90
16441;DHT22;8330;-33.858;151.184;2023-10-31T10:06:15;21.70;75.80
16441;DHT22;8330;-33.858;151.184;2023-10-31T10:08:49;21.60;76.40
16441;DHT22;8330;-33.858;151.184;2023-10-31T10:11:19;21.60;77.00
16441;DHT22;8330;-33.858;151.184;2023-10-31T10:13:52;21.70;77.00
16441;DHT22;8330;-33.858;151.184;2023-10-31T10:16:33;21.60;77.10
16441;DHT22;8330;-33.858;151.184;2023-10-31T10:19:16;21.50;77.70
16441;DHT22;8330;-33.858;151.184;2023-10-31T10:21:51;21.50;78.50
16441;DHT22;8330;-33.858;151.184;2023-10-31T10:24:23;21.60;77.70
16441;DHT22;8330;-33.858;151.184;2023-10-31T10:26:54;21.60;77.40
16441;DHT22;8330;-33.858;151.184;2023-10-31T10:29:26;21.60;77.00
16441;DHT22;8330;-33.858;151.184;2023-10-31T10:31:57;21.60;77.10
16441;DHT22;8330;-33.858;151.184;2023-10-31T10:34:28;21.70;76.00
16441;DHT22;8330;-33.858;151.184;2023-10-31T10:36:59;21.50;76.70
16441;DHT22;8330;-33.858;151.184;2023-10-31T10:39:33;21.50;76.70
16441;DHT22;8330;-33.858;151.184;2023-10-31T10:42:10;21.60;76.60
16441;DHT22;8330;-33.858;151.184;2023-10-31T10:44:46;21.50;77.30
16441;DHT22;8330;-33.858;151.184;2023-10-31T10:47:19;21.40;78.40
16441;DHT22;8330;-33.858;151.184;2023-10-31T10:49:55;21.40;79.00
16441;DHT22;8330;-33.858;151.184;2023-10-31T10:52:30;21.40;79.00
16441;DHT22;8330;-33.858;151.184;2023-10-31T10:55:11;21.30;80.40
16441;DHT22;8330;-33.858;151.184;2023-10-31T10:57:51;21.30;80.90
16441;DHT22;8330;-33.858;151.184;2023-10-31T11:00:26;21.30;80.50
16441;DHT22;8330;-33.858;151.184;2023-10-31T11:02:57;21.30;81.10
16441;DHT22;8330;-33.858;151.184;2023-10-31T11:05:29;21.30;80.10
16441;DHT22;8330;-33.858;151.184;2023-10-31T11:08:01;21.30;79.70
16441;DHT22;8330;-33.858;151.184;2023-10-31T11:10:32;21.30;81.00
16441;DHT22;8330;-33.858;151.184;2023-10-31T11:13:03;21.30;81.30
16441;DHT22;8330;-33.858;151.184;2023-10-31T11:15:38;21.20;80.10
16441;DHT22;8330;-33.858;151.184;2023-10-31T11:18:09;21.30;80.60
16441;DHT22;8330;-33.858;151.184;2023-10-31T11:20:40;21.30;81.30
16441;DHT22;8330;-33.858;151.184;2023-10-31T11:23:11;21.20;80.10
16441;DHT22;8330;-33.858;151.184;2023-10-31T11:25:44;21.30;80.00
16441;DHT22;8330;-33.858;151.184;2023-10-31T11:28:16;21.30;80.90
16441;DHT22;8330;-33.858;151.184;2023-10-31T11:30:49;21.30;80.40
16441;DHT22;8330;-33.858;151.184;2023-10-31T11:33:26;21.30;80.90
16441;DHT22;8330;-33.858;151.184;2023-10-31T11:36:01;21.30;80.60
16441;DHT22;8330;-33.858;151.184;2023-10-31T11:38:37;21.30;80.30
16441;DHT22;8330;-33.858;151.184;2023-10-31T11:41:08;21.30;79.70
16441;DHT22;8330;-33.858;151.184;2023-10-31T11:43:52;21.20;80.40
16441;DHT22;8330;-33.858;151.184;2023-10-31T11:46:26;21.20;80.70
16441;DHT22;8330;-33.858;151.184;2023-10-31T11:48:57;21.20;82.00
16441;DHT22;8330;-33.858;151.184;2023-10-31T11:51:29;21.20;81.40
16441;DHT22;8330;-33.858;151.184;2023-10-31T11:54:01;21.20;81.60
16441;DHT22;8330;-33.858;151.184;2023-10-31T11:56:35;21.30;82.20
16441;DHT22;8330;-33.858;151.184;2023-10-31T11:59:07;21.30;81.60
16441;DHT22;8330;-33.858;151.184;2023-10-31T12:01:49;21.20;81.50
16441;DHT22;8330;-33.858;151.184;2023-10-31T12:04:25;21.30;81.50
16441;DHT22;8330;-33.858;151.184;2023-10-31T12:07:00;21.30;81.70
16441;DHT22;8330;-33.858;151.184;2023-10-31T12:09:33;21.20;80.50
16441;DHT22;8330;-33.858;151.184;2023-10-31T12:12:06;21.20;80.70
16441;DHT22;8330;-33.858;151.184;2023-10-31T12:14:38;21.20;80.70
16441;DHT22;8330;-33.858;151.184;2023-10-31T12:17:10;21.10;80.70
16441;DHT22;8330;-33.858;151.184;2023-10-31T12:19:41;21.10;81.50
16441;DHT22;8330;-33.858;151.184;2023-10-31T12:22:16;21.10;81.70
16441;DHT22;8330;-33.858;151.184;2023-10-31T12:24:47;21.10;81.10
16441;DHT22;8330;-33.858;151.184;2023-10-31T12:27:18;21.00;80.60
16441;DHT22;8330;-33.858;151.184;2023-10-31T12:30:01;21.00;81.10
16441;DHT22;8330;-33.858;151.184;2023-10-31T12:32:33;21.00;80.20
16441;DHT22;8330;-33.858;151.184;2023-10-31T12:35:06;21.00;80.40
16441;DHT22;8330;-33.858;151.184;2023-10-31T12:37:39;21.00;80.50
16441;DHT22;8330;-33.858;151.184;2023-10-31T12:42:42;20.90;82.00
16441;DHT22;8330;-33.858;151.184;2023-10-31T12:45:13;20.90;81.80
16441;DHT22;8330;-33.858;151.184;2023-10-31T12:48:01;20.90;82.50
16441;DHT22;8330;-33.858;151.184;2023-10-31T12:50:35;20.90;82.80
16441;DHT22;8330;-33.858;151.184;2023-10-31T12:53:06;20.90;82.30
16441;DHT22;8330;-33.858;151.184;2023-10-31T12:55:41;20.90;82.10
16441;DHT22;8330;-33.858;151.184;2023-10-31T12:58:21;20.90;82.10
16441;DHT22;8330;-33.858;151.184;2023-10-31T13:00:52;20.90;82.20
16441;DHT22;8330;-33.858;151.184;2023-10-31T13:03:25;20.90;81.80
16441;DHT22;8330;-33.858;151.184;2023-10-31T13:05:56;20.80;81.00
16441;DHT22;8330;-33.858;151.184;2023-10-31T13:08:27;20.90;81.00
16441;DHT22;8330;-33.858;151.184;2023-10-31T13:10:58;20.80;80.80
16441;DHT22;8330;-33.858;151.184;2023-10-31T13:13:29;20.80;80.80
16441;DHT22;8330;-33.858;151.184;2023-10-31T13:16:00;20.80;81.10
16441;DHT22;8330;-33.858;151.184;2023-10-31T13:18:32;20.80;82.30
16441;DHT22;8330;-33.858;151.184;2023-10-31T13:21:03;20.80;81.60
16441;DHT22;8330;-33.858;151.184;2023-10-31T13:23:34;20.70;82.70
16441;DHT22;8330;-33.858;151.184;2023-10-31T13:26:06;20.70;82.50
16441;DHT22;8330;-33.858;151.184;2023-10-31T13:28:36;20.70;82.80
16441;DHT22;8330;-33.858;151.184;2023-10-31T13:31:07;20.70;82.40
16441;DHT22;8330;-33.858;151.184;2023-10-31T13:33:40;20.70;83.50
16441;DHT22;8330;-33.858;151.184;2023-10-31T13:36:11;20.70;84.80
16441;DHT22;8330;-33.858;151.184;2023-10-31T13:38:42;20.70;84.90
16441;DHT22;8330;-33.858;151.184;2023-10-31T13:41:13;20.70;85.00
16441;DHT22;8330;-33.858;151.184;2023-10-31T13:43:45;20.70;85.40
16441;DHT22;8330;-33.858;151.184;2023-10-31T13:46:16;20.70;86.30
16441;DHT22;8330;-33.858;151.184;2023-10-31T13:48:49;20.70;85.40
16441;DHT22;8330;-33.858;151.184;2023-10-31T13:51:19;20.70;85.90
16441;DHT22;8330;-33.858;151.184;2023-10-31T13:53:50;20.70;86.20
16441;DHT22;8330;-33.858;151.184;2023-10-31T13:56:21;20.70;85.70
16441;DHT22;8330;-33.858;151.184;2023-10-31T13:58:52;20.70;85.80
16441;DHT22;8330;-33.858;151.184;2023-10-31T14:01:22;20.70;85.90
16441;DHT22;8330;-33.858;151.184;2023-10-31T14:03:55;20.70;85.80
16441;DHT22;8330;-33.858;151.184;2023-10-31T14:06:26;20.80;86.10
16441;DHT22;8330;-33.858;151.184;2023-10-31T14:09:00;20.80;86.30
16441;DHT22;8330;-33.858;151.184;2023-10-31T14:11:32;20.80;86.60
16441;DHT22;8330;-33.858;151.184;2023-10-31T14:14:03;20.90;87.10
16441;DHT22;8330;-33.858;151.184;2023-10-31T14:16:38;20.80;87.00
16441;DHT22;8330;-33.858;151.184;2023-10-31T14:19:10;20.80;87.40
16441;DHT22;8330;-33.858;151.184;2023-10-31T14:21:42;20.80;88.00
16441;DHT22;8330;-33.858;151.184;2023-10-31T14:24:13;20.80;88.30
16441;DHT22;8330;-33.858;151.184;2023-10-31T14:26:44;20.80;87.80
16441;DHT22;8330;-33.858;151.184;2023-10-31T14:29:15;20.80;87.80
16441;DHT22;8330;-33.858;151.184;2023-10-31T14:31:45;20.70;87.40
16441;DHT22;8330;-33.858;151.184;2023-10-31T14:34:18;20.60;87.80
16441;DHT22;8330;-33.858;151.184;2023-10-31T14:36:50;20.60;88.10
16441;DHT22;8330;-33.858;151.184;2023-10-31T14:39:21;20.60;89.00
16441;DHT22;8330;-33.858;151.184;2023-10-31T14:41:52;20.60;89.10
16441;DHT22;8330;-33.858;151.184;2023-10-31T14:44:22;20.60;89.80
16441;DHT22;8330;-33.858;151.184;2023-10-31T14:46:53;20.50;90.10
16441;DHT22;8330;-33.858;151.184;2023-10-31T14:49:26;20.50;90.30
16441;DHT22;8330;-33.858;151.184;2023-10-31T14:51:56;20.40;90.40
16441;DHT22;8330;-33.858;151.184;2023-10-31T14:54:29;20.40;90.70
16441;DHT22;8330;-33.858;151.184;2023-10-31T14:56:59;20.40;90.70
16441;DHT22;8330;-33.858;151.184;2023-10-31T14:59:30;20.50;90.70
16441;DHT22;8330;-33.858;151.184;2023-10-31T15:02:01;20.40;90.40
16441;DHT22;8330;-33.858;151.184;2023-10-31T15:04:33;20.40;90.40
16441;DHT22;8330;-33.858;151.184;2023-10-31T15:07:04;20.40;90.60
16441;DHT22;8330;-33.858;151.184;2023-10-31T15:09:35;20.40;90.70
16441;DHT22;8330;-33.858;151.184;2023-10-31T15:12:06;20.40;90.90
16441;DHT22;8330;-33.858;151.184;2023-10-31T15:14:37;20.30;91.00
16441;DHT22;8330;-33.858;151.184;2023-10-31T15:17:08;20.30;91.50
16441;DHT22;8330;-33.858;151.184;2023-10-31T15:19:41;20.30;91.50
16441;DHT22;8330;-33.858;151.184;2023-10-31T15:22:12;20.30;91.90
16441;DHT22;8330;-33.858;151.184;2023-10-31T15:24:43;20.30;92.30
16441;DHT22;8330;-33.858;151.184;2023-10-31T15:27:14;20.30;92.10
16441;DHT22;8330;-33.858;151.184;2023-10-31T15:29:45;20.30;92.30
16441;DHT22;8330;-33.858;151.184;2023-10-31T15:32:16;20.30;92.50
16441;DHT22;8330;-33.858;151.184;2023-10-31T15:34:48;20.30;92.60